sensor_id;sensor_type;location;lat;lon;timestamp;pressure;altitude;pressure_sealevel;temperature;humidity
76011;BME280;64701;43.536;1.478;2023-04-03T00:01:32;100222.69;;;9.88;89.47
76011;BME280;64701;43.536;1.478;2023-04-03T00:03:57;100216.38;;;9.89;89.35
76011;BME280;64701;43.536;1.478;2023-04-03T00:06:23;100209.63;;;9.87;89.59
76011;BME280;64701;43.536;1.478;2023-04-03T00:08:48;100211.91;;;9.90;89.54
76011;BME280;64701;43.536;1.478;2023-04-03T00:11:13;100203.81;;;9.91;89.08
76011;BME280;64701;43.536;1.478;2023-04-03T00:13:40;100209.09;;;9.91;89.02
76011;BME280;64701;43.536;1.478;2023-04-03T00:16:06;100211.59;;;9.93;89.25
76011;BME280;64701;43.536;1.478;2023-04-03T00:18:32;100211.91;;;9.90;89.88
76011;BME280;64701;43.536;1.478;2023-04-03T00:20:57;100203.34;;;9.88;89.09
76011;BME280;64701;43.536;1.478;2023-04-03T00:23:22;100206.63;;;9.90;89.33
76011;BME280;64701;43.536;1.478;2023-04-03T00:25:49;100203.97;;;9.90;89.33
76011;BME280;64701;43.536;1.478;2023-04-03T00:28:14;100209.09;;;9.91;88.72
76011;BME280;64701;43.536;1.478;2023-04-03T00:30:40;100207.28;;;9.92;88.77
76011;BME280;64701;43.536;1.478;2023-04-03T00:33:05;100204.34;;;9.87;89.02
76011;BME280;64701;43.536;1.478;2023-04-03T00:35:31;100202.50;;;9.87;88.77
76011;BME280;64701;43.536;1.478;2023-04-03T00:37:56;100197.69;;;9.91;88.72
76011;BME280;64701;43.536;1.478;2023-04-03T00:40:22;100203.34;;;9.88;88.35
76011;BME280;64701;43.536;1.478;2023-04-03T00:42:48;100194.22;;;9.90;87.94
76011;BME280;64701;43.536;1.478;2023-04-03T00:45:27;100192.56;;;9.89;87.98
76011;BME280;64701;43.536;1.478;2023-04-03T00:47:53;100196.88;;;9.90;88.04
76011;BME280;64701;43.536;1.478;2023-04-03T00:50:19;100189.59;;;9.92;87.37
76011;BME280;64701;43.536;1.478;2023-04-03T00:52:45;100188.78;;;9.92;87.16
76011;BME280;64701;43.536;1.478;2023-04-03T00:55:11;100189.13;;;9.89;87.32
76011;BME280;64701;43.536;1.478;2023-04-03T00:57:38;100184.97;;;9.94;87.10
76011;BME280;64701;43.536;1.478;2023-04-03T01:00:07;100173.25;;;9.89;87.09
76011;BME280;64701;43.536;1.478;2023-04-03T01:02:34;100178.41;;;9.82;87.13
76011;BME280;64701;43.536;1.478;2023-04-03T01:04:59;100170.16;;;9.77;87.45
76011;BME280;64701;43.536;1.478;2023-04-03T01:07:29;100173.78;;;9.76;87.74
76011;BME280;64701;43.536;1.478;2023-04-03T01:09:59;100170.94;;;9.77;86.90
76011;BME280;64701;43.536;1.478;2023-04-03T01:12:26;100169.63;;;9.81;86.50
76011;BME280;64701;43.536;1.478;2023-04-03T01:14:53;100164.53;;;9.72;87.42
76011;BME280;64701;43.536;1.478;2023-04-03T01:17:35;100162.38;;;9.75;86.95
76011;BME280;64701;43.536;1.478;2023-04-03T01:25:28;100156.06;;;9.84;86.10
76011;BME280;64701;43.536;1.478;2023-04-03T01:27:54;100155.22;;;9.84;86.52
76011;BME280;64701;43.536;1.478;2023-04-03T01:30:21;100149.31;;;9.82;86.93
76011;BME280;64701;43.536;1.478;2023-04-03T01:32:47;100154.09;;;9.78;85.96
76011;BME280;64701;43.536;1.478;2023-04-03T01:35:12;100150.31;;;9.81;85.96
76011;BME280;64701;43.536;1.478;2023-04-03T01:37:37;100155.91;;;9.78;86.64
76011;BME280;64701;43.536;1.478;2023-04-03T01:40:03;100149.47;;;9.80;86.78
76011;BME280;64701;43.536;1.478;2023-04-03T01:42:29;100151.66;;;9.77;86.99
76011;BME280;64701;43.536;1.478;2023-04-03T01:44:54;100147.50;;;9.74;87.41
76011;BME280;64701;43.536;1.478;2023-04-03T01:47:20;100138.41;;;9.77;87.02
76011;BME280;64701;43.536;1.478;2023-04-03T01:49:45;100147.00;;;9.79;87.48
76011;BME280;64701;43.536;1.478;2023-04-03T01:52:10;100149.78;;;9.77;87.61
76011;BME280;64701;43.536;1.478;2023-04-03T01:54:36;100152.63;;;9.76;87.68
76011;BME280;64701;43.536;1.478;2023-04-03T01:57:01;100153.78;;;9.73;87.44
76011;BME280;64701;43.536;1.478;2023-04-03T01:59:26;100154.28;;;9.77;87.24
76011;BME280;64701;43.536;1.478;2023-04-03T02:01:51;100156.88;;;9.85;87.00
76011;BME280;64701;43.536;1.478;2023-04-03T02:04:17;100158.19;;;9.89;86.34
76011;BME280;64701;43.536;1.478;2023-04-03T02:06:42;100144.31;;;9.87;87.90
76011;BME280;64701;43.536;1.478;2023-04-03T02:09:08;100147.00;;;9.79;87.88
76011;BME280;64701;43.536;1.478;2023-04-03T02:11:33;100143.38;;;9.72;88.84
76011;BME280;64701;43.536;1.478;2023-04-03T02:13:58;100142.53;;;9.71;89.20
76011;BME280;64701;43.536;1.478;2023-04-03T02:16:24;100146.38;;;9.69;89.12
76011;BME280;64701;43.536;1.478;2023-04-03T02:18:49;100139.44;;;9.68;88.97
76011;BME280;64701;43.536;1.478;2023-04-03T02:21:15;100136.94;;;9.66;89.64
76011;BME280;64701;43.536;1.478;2023-04-03T02:23:40;100134.50;;;9.65;89.52
76011;BME280;64701;43.536;1.478;2023-04-03T02:26:10;100137.31;;;9.63;90.24
76011;BME280;64701;43.536;1.478;2023-04-03T02:28:35;100135.19;;;9.59;90.42
76011;BME280;64701;43.536;1.478;2023-04-03T02:31:01;100130.38;;;9.62;89.66
76011;BME280;64701;43.536;1.478;2023-04-03T02:33:27;100124.09;;;9.55;90.39
76011;BME280;64701;43.536;1.478;2023-04-03T02:35:53;100131.88;;;9.57;90.60
76011;BME280;64701;43.536;1.478;2023-04-03T02:38:18;100126.06;;;9.61;89.45
76011;BME280;64701;43.536;1.478;2023-04-03T02:40:43;100134.50;;;9.65;89.65
76011;BME280;64701;43.536;1.478;2023-04-03T02:43:09;100120.63;;;9.63;89.94
76011;BME280;64701;43.536;1.478;2023-04-03T02:45:35;100120.94;;;9.60;89.69
76011;BME280;64701;43.536;1.478;2023-04-03T02:48:00;100117.66;;;9.58;90.70
76011;BME280;64701;43.536;1.478;2023-04-03T02:50:25;100111.88;;;9.54;90.17
76011;BME280;64701;43.536;1.478;2023-04-03T02:52:51;100114.03;;;9.59;90.38
76011;BME280;64701;43.536;1.478;2023-04-03T02:55:16;100108.75;;;9.59;90.01
76011;BME280;64701;43.536;1.478;2023-04-03T02:57:41;100115.03;;;9.58;89.83
76011;BME280;64701;43.536;1.478;2023-04-03T03:00:07;100108.41;;;9.54;90.09
76011;BME280;64701;43.536;1.478;2023-04-03T03:02:32;100110.75;;;9.49;90.35
76011;BME280;64701;43.536;1.478;2023-04-03T03:04:58;100111.41;;;9.51;90.06
76011;BME280;64701;43.536;1.478;2023-04-03T03:07:23;100107.59;;;9.53;90.29
76011;BME280;64701;43.536;1.478;2023-04-03T03:09:48;100106.94;;;9.51;89.89
76011;BME280;64701;43.536;1.478;2023-04-03T03:12:13;100114.38;;;9.48;90.55
76011;BME280;64701;43.536;1.478;2023-04-03T03:14:39;100106.44;;;9.48;90.66
76011;BME280;64701;43.536;1.478;2023-04-03T03:17:05;100107.78;;;9.43;90.74
76011;BME280;64701;43.536;1.478;2023-04-03T03:19:30;100101.50;;;9.45;90.76
76011;BME280;64701;43.536;1.478;2023-04-03T03:21:56;100104.81;;;9.38;91.07
76011;BME280;64701;43.536;1.478;2023-04-03T03:24:22;100098.56;;;9.39;90.93
76011;BME280;64701;43.536;1.478;2023-04-03T03:26:47;100101.53;;;9.36;90.67
76011;BME280;64701;43.536;1.478;2023-04-03T03:29:12;100093.28;;;9.39;90.72
76011;BME280;64701;43.536;1.478;2023-04-03T03:31:37;100100.06;;;9.34;91.14
76011;BME280;64701;43.536;1.478;2023-04-03T03:34:03;100100.88;;;9.34;91.05
76011;BME280;64701;43.536;1.478;2023-04-03T03:36:28;100095.41;;;9.36;90.89
76011;BME280;64701;43.536;1.478;2023-04-03T03:38:53;100091.94;;;9.35;90.99
76011;BME280;64701;43.536;1.478;2023-04-03T03:41:18;100094.63;;;9.27;91.65
76011;BME280;64701;43.536;1.478;2023-04-03T03:43:44;100087.16;;;9.31;91.13
76011;BME280;64701;43.536;1.478;2023-04-03T03:46:09;100085.72;;;9.28;91.77
76011;BME280;64701;43.536;1.478;2023-04-03T03:48:34;100092.66;;;9.29;91.45
76011;BME280;64701;43.536;1.478;2023-04-03T03:51:00;100088.97;;;9.30;91.29
76011;BME280;64701;43.536;1.478;2023-04-03T03:53:25;100075.97;;;9.29;91.43
76011;BME280;64701;43.536;1.478;2023-04-03T03:55:50;100081.88;;;9.31;91.35
76011;BME280;64701;43.536;1.478;2023-04-03T03:58:16;100077.94;;;9.27;91.40
76011;BME280;64701;43.536;1.478;2023-04-03T04:00:41;100078.78;;;9.27;91.52
76011;BME280;64701;43.536;1.478;2023-04-03T04:03:06;100074.63;;;9.25;91.80
76011;BME280;64701;43.536;1.478;2023-04-03T04:05:31;100072.03;;;9.17;91.70
76011;BME280;64701;43.536;1.478;2023-04-03T04:07:57;100078.16;;;9.17;91.90
76011;BME280;64701;43.536;1.478;2023-04-03T04:10:22;100075.31;;;9.19;92.00
76011;BME280;64701;43.536;1.478;2023-04-03T04:12:48;100075.34;;;9.11;92.04
76011;BME280;64701;43.536;1.478;2023-04-03T04:15:14;100064.09;;;9.17;91.59
76011;BME280;64701;43.536;1.478;2023-04-03T04:17:39;100065.25;;;9.22;91.35
76011;BME280;64701;43.536;1.478;2023-04-03T04:20:05;100070.19;;;9.25;91.92
76011;BME280;64701;43.536;1.478;2023-04-03T04:22:30;100068.88;;;9.29;91.25
76011;BME280;64701;43.536;1.478;2023-04-03T04:24:56;100060.94;;;9.29;91.74
76011;BME280;64701;43.536;1.478;2023-04-03T04:27:21;100057.28;;;9.30;91.41
76011;BME280;64701;43.536;1.478;2023-04-03T04:29:46;100056.94;;;9.33;91.18
76011;BME280;64701;43.536;1.478;2023-04-03T04:32:11;100060.94;;;9.29;91.32
76011;BME280;64701;43.536;1.478;2023-04-03T04:34:37;100066.69;;;9.33;91.10
76011;BME280;64701;43.536;1.478;2023-04-03T04:37:02;100062.91;;;9.27;91.78
76011;BME280;64701;43.536;1.478;2023-04-03T04:39:27;100058.16;;;9.23;91.59
76011;BME280;64701;43.536;1.478;2023-04-03T04:41:52;100056.34;;;9.23;91.61
76011;BME280;64701;43.536;1.478;2023-04-03T04:44:18;100064.88;;;9.25;91.57
76011;BME280;64701;43.536;1.478;2023-04-03T04:46:43;100057.94;;;9.24;91.66
76011;BME280;64701;43.536;1.478;2023-04-03T04:49:08;100056.34;;;9.23;91.67
76011;BME280;64701;43.536;1.478;2023-04-03T04:51:34;100056.34;;;9.23;91.84
76011;BME280;64701;43.536;1.478;2023-04-03T04:53:59;100061.25;;;9.26;91.35
76011;BME280;64701;43.536;1.478;2023-04-03T04:56:24;100060.09;;;9.29;91.70
76011;BME280;64701;43.536;1.478;2023-04-03T04:58:50;100053.00;;;9.29;91.59
76011;BME280;64701;43.536;1.478;2023-04-03T05:01:15;100046.69;;;9.30;91.79
76011;BME280;64701;43.536;1.478;2023-04-03T05:03:41;100051.03;;;9.23;91.78
76011;BME280;64701;43.536;1.478;2023-04-03T05:06:06;100041.94;;;9.26;91.85
76011;BME280;64701;43.536;1.478;2023-04-03T05:08:31;100040.47;;;9.23;92.27
76011;BME280;64701;43.536;1.478;2023-04-03T05:10:57;100050.22;;;9.23;92.14
76011;BME280;64701;43.536;1.478;2023-04-03T05:13:22;100048.72;;;9.20;92.47
76011;BME280;64701;43.536;1.478;2023-04-03T05:15:47;100044.44;;;9.19;92.38
76011;BME280;64701;43.536;1.478;2023-04-03T05:18:13;100046.56;;;9.24;91.90
76011;BME280;64701;43.536;1.478;2023-04-03T05:20:38;100042.09;;;9.24;92.47
76011;BME280;64701;43.536;1.478;2023-04-03T05:23:03;100034.19;;;9.24;92.33
76011;BME280;64701;43.536;1.478;2023-04-03T05:25:29;100037.84;;;9.23;92.59
76011;BME280;64701;43.536;1.478;2023-04-03T05:27:55;100039.50;;;9.16;92.40
76011;BME280;64701;43.536;1.478;2023-04-03T05:30:20;100040.13;;;9.18;92.57
76011;BME280;64701;43.536;1.478;2023-04-03T05:32:46;100038.81;;;9.22;92.36
76011;BME280;64701;43.536;1.478;2023-04-03T05:35:11;100036.34;;;9.21;92.77
76011;BME280;64701;43.536;1.478;2023-04-03T05:37:36;100040.81;;;9.20;92.68
76011;BME280;64701;43.536;1.478;2023-04-03T05:40:02;100045.78;;;9.15;92.87
76011;BME280;64701;43.536;1.478;2023-04-03T05:42:28;100047.06;;;9.19;93.06
76011;BME280;64701;43.536;1.478;2023-04-03T05:44:53;100048.72;;;9.20;92.99
76011;BME280;64701;43.536;1.478;2023-04-03T05:47:18;100049.09;;;9.17;93.15
76011;BME280;64701;43.536;1.478;2023-04-03T05:49:44;100056.81;;;9.19;93.05
76011;BME280;64701;43.536;1.478;2023-04-03T05:52:23;100051.72;;;9.17;92.84
76011;BME280;64701;43.536;1.478;2023-04-03T05:54:50;100053.50;;;9.25;92.52
76011;BME280;64701;43.536;1.478;2023-04-03T05:57:16;100057.63;;;9.27;92.18
76011;BME280;64701;43.536;1.478;2023-04-03T05:59:42;100055.66;;;9.29;92.27
76011;BME280;64701;43.536;1.478;2023-04-03T06:02:08;100056.13;;;9.33;91.70
76011;BME280;64701;43.536;1.478;2023-04-03T06:04:34;100058.25;;;9.37;91.63
76011;BME280;64701;43.536;1.478;2023-04-03T06:06:59;100063.53;;;9.37;91.79
76011;BME280;64701;43.536;1.478;2023-04-03T06:09:26;100066.34;;;9.36;91.70
76011;BME280;64701;43.536;1.478;2023-04-03T06:11:52;100062.53;;;9.38;91.79
76011;BME280;64701;43.536;1.478;2023-04-03T06:14:18;100066.84;;;9.39;91.66
76011;BME280;64701;43.536;1.478;2023-04-03T06:16:43;100064.84;;;9.41;91.39
76011;BME280;64701;43.536;1.478;2023-04-03T06:19:09;100072.44;;;9.45;90.62
76011;BME280;64701;43.536;1.478;2023-04-03T06:21:35;100073.56;;;9.50;90.80
76011;BME280;64701;43.536;1.478;2023-04-03T06:24:01;100072.91;;;9.48;90.87
76011;BME280;64701;43.536;1.478;2023-04-03T06:26:27;100074.41;;;9.51;90.50
76011;BME280;64701;43.536;1.478;2023-04-03T06:28:52;100076.38;;;9.49;90.71
76011;BME280;64701;43.536;1.478;2023-04-03T06:31:17;100076.38;;;9.49;90.27
76011;BME280;64701;43.536;1.478;2023-04-03T06:33:43;100083.00;;;9.45;90.52
76011;BME280;64701;43.536;1.478;2023-04-03T06:36:10;100085.66;;;9.45;90.74
76011;BME280;64701;43.536;1.478;2023-04-03T06:38:35;100092.22;;;9.49;90.11
76011;BME280;64701;43.536;1.478;2023-04-03T06:41:00;100086.25;;;9.55;90.21
76011;BME280;64701;43.536;1.478;2023-04-03T06:43:26;100084.97;;;9.51;89.98
76011;BME280;64701;43.536;1.478;2023-04-03T06:45:51;100078.16;;;9.56;89.26
76011;BME280;64701;43.536;1.478;2023-04-03T06:48:16;100077.03;;;9.59;89.70
76011;BME280;64701;43.536;1.478;2023-04-03T06:50:41;100077.34;;;9.56;89.57
76011;BME280;64701;43.536;1.478;2023-04-03T06:53:07;100075.69;;;9.55;90.06
76011;BME280;64701;43.536;1.478;2023-04-03T06:55:33;100079.00;;;9.57;90.03
76011;BME280;64701;43.536;1.478;2023-04-03T06:57:58;100075.00;;;9.61;89.59
76011;BME280;64701;43.536;1.478;2023-04-03T07:00:23;100079.97;;;9.64;88.93
76011;BME280;64701;43.536;1.478;2023-04-03T07:02:49;100084.91;;;9.67;89.13
76011;BME280;64701;43.536;1.478;2023-04-03T07:05:15;100080.28;;;9.69;89.23
76011;BME280;64701;43.536;1.478;2023-04-03T07:07:40;100085.72;;;9.67;88.69
76011;BME280;64701;43.536;1.478;2023-04-03T07:10:06;100083.56;;;9.71;88.86
76011;BME280;64701;43.536;1.478;2023-04-03T07:12:31;100081.22;;;9.76;88.98
76011;BME280;64701;43.536;1.478;2023-04-03T07:14:57;100080.25;;;9.77;88.30
76011;BME280;64701;43.536;1.478;2023-04-03T07:17:22;100077.59;;;9.77;88.57
76011;BME280;64701;43.536;1.478;2023-04-03T07:19:47;100077.75;;;9.75;88.68
76011;BME280;64701;43.536;1.478;2023-04-03T07:22:13;100069.66;;;9.77;88.50
76011;BME280;64701;43.536;1.478;2023-04-03T07:24:38;100078.22;;;9.79;87.99
76011;BME280;64701;43.536;1.478;2023-04-03T07:27:03;100078.22;;;9.79;88.15
76011;BME280;64701;43.536;1.478;2023-04-03T07:29:29;100070.59;;;9.84;88.00
76011;BME280;64701;43.536;1.478;2023-04-03T07:31:55;100069.59;;;9.85;87.30
76011;BME280;64701;43.536;1.478;2023-04-03T07:34:21;100070.09;;;9.89;87.54
76011;BME280;64701;43.536;1.478;2023-04-03T07:36:46;100070.56;;;9.92;87.30
76011;BME280;64701;43.536;1.478;2023-04-03T07:39:11;100071.03;;;9.96;87.30
76011;BME280;64701;43.536;1.478;2023-04-03T07:41:37;100070.41;;;9.94;86.75
76011;BME280;64701;43.536;1.478;2023-04-03T07:44:02;100061.97;;;9.90;87.18
76011;BME280;64701;43.536;1.478;2023-04-03T07:46:28;100065.75;;;9.96;87.20
76011;BME280;64701;43.536;1.478;2023-04-03T07:48:53;100060.31;;;9.89;86.09
76011;BME280;64701;43.536;1.478;2023-04-03T07:51:18;100062.03;;;9.82;85.50
76011;BME280;64701;43.536;1.478;2023-04-03T07:53:44;100058.69;;;9.88;85.81
76011;BME280;64701;43.536;1.478;2023-04-03T07:56:10;100065.44;;;9.91;86.55
76011;BME280;64701;43.536;1.478;2023-04-03T07:58:35;100060.50;;;9.88;85.22
76011;BME280;64701;43.536;1.478;2023-04-03T08:01:01;100066.44;;;9.90;85.27
76011;BME280;64701;43.536;1.478;2023-04-03T08:03:26;100068.03;;;9.99;86.29
76011;BME280;64701;43.536;1.478;2023-04-03T08:05:51;100078.94;;;10.04;84.79
76011;BME280;64701;43.536;1.478;2023-04-03T08:08:19;100077.69;;;10.14;85.32
76011;BME280;64701;43.536;1.478;2023-04-03T08:10:49;100073.59;;;10.12;84.28
76011;BME280;64701;43.536;1.478;2023-04-03T08:13:15;100073.56;;;10.20;85.33
76011;BME280;64701;43.536;1.478;2023-04-03T08:15:40;100064.28;;;10.24;85.34
76011;BME280;64701;43.536;1.478;2023-04-03T08:18:06;100062.56;;;10.31;84.12
76011;BME280;64701;43.536;1.478;2023-04-03T08:20:31;100067.25;;;10.44;83.66
76011;BME280;64701;43.536;1.478;2023-04-03T08:22:56;100064.91;;;10.49;83.80
76011;BME280;64701;43.536;1.478;2023-04-03T08:25:22;100067.38;;;10.50;83.26
76011;BME280;64701;43.536;1.478;2023-04-03T08:27:47;100074.78;;;10.55;83.42
76011;BME280;64701;43.536;1.478;2023-04-03T08:30:12;100060.84;;;10.61;83.29
76011;BME280;64701;43.536;1.478;2023-04-03T08:32:38;100072.09;;;10.63;82.76
76011;BME280;64701;43.536;1.478;2023-04-03T08:35:04;100072.31;;;10.76;81.89
76011;BME280;64701;43.536;1.478;2023-04-03T08:37:29;100061.06;;;10.74;80.41
76011;BME280;64701;43.536;1.478;2023-04-03T08:39:55;100071.03;;;10.72;80.47
76011;BME280;64701;43.536;1.478;2023-04-03T08:47:13;100058.50;;;10.81;78.84
76011;BME280;64701;43.536;1.478;2023-04-03T08:52:13;100057.38;;;11.13;78.65
76011;BME280;64701;43.536;1.478;2023-04-03T08:54:56;100055.53;;;11.28;78.12
76011;BME280;64701;43.536;1.478;2023-04-03T09:02:57;100032.88;;;11.55;75.76
76011;BME280;64701;43.536;1.478;2023-04-03T09:08:22;100032.94;;;11.61;74.49
76011;BME280;64701;43.536;1.478;2023-04-03T09:16:01;100039.72;;;12.00;75.20
76011;BME280;64701;43.536;1.478;2023-04-03T09:18:35;100021.47;;;12.11;74.94
76011;BME280;64701;43.536;1.478;2023-04-03T09:21:39;100032.81;;;12.20;73.56
76011;BME280;64701;43.536;1.478;2023-04-03T09:23:58;100022.03;;;12.28;72.93
76011;BME280;64701;43.536;1.478;2023-04-03T09:26:25;100022.38;;;12.18;73.06
76011;BME280;64701;43.536;1.478;2023-04-03T09:28:54;100027.09;;;12.23;73.42
76011;BME280;64701;43.536;1.478;2023-04-03T09:33:47;100025.84;;;12.19;71.78
76011;BME280;64701;43.536;1.478;2023-04-03T09:36:15;100023.50;;;12.31;72.12
76011;BME280;64701;43.536;1.478;2023-04-03T09:39:04;100019.44;;;12.35;70.53
76011;BME280;64701;43.536;1.478;2023-04-03T09:41:29;100020.84;;;12.31;69.13
76011;BME280;64701;43.536;1.478;2023-04-03T09:43:55;100026.78;;;12.54;71.16
76011;BME280;64701;43.536;1.478;2023-04-03T09:48:56;100016.25;;;12.67;68.47
76011;BME280;64701;43.536;1.478;2023-04-03T09:51:24;100016.84;;;12.62;67.58
76011;BME280;64701;43.536;1.478;2023-04-03T09:53:51;100009.63;;;12.56;66.37
76011;BME280;64701;43.536;1.478;2023-04-03T09:58:43;100009.72;;;12.69;66.80
76011;BME280;64701;43.536;1.478;2023-04-03T10:04:03;100002.34;;;12.93;66.02
76011;BME280;64701;43.536;1.478;2023-04-03T10:06:31;100014.44;;;13.02;67.32
76011;BME280;64701;43.536;1.478;2023-04-03T10:09:00;99998.69;;;13.28;66.33
76011;BME280;64701;43.536;1.478;2023-04-03T10:11:28;99986.06;;;13.43;65.31
76011;BME280;64701;43.536;1.478;2023-04-03T10:13:57;99991.59;;;13.48;63.63
76011;BME280;64701;43.536;1.478;2023-04-03T10:16:48;99987.72;;;13.51;64.00
76011;BME280;64701;43.536;1.478;2023-04-03T10:21:51;99983.84;;;13.54;62.81
76011;BME280;64701;43.536;1.478;2023-04-03T10:24:23;99980.78;;;13.57;62.09
76011;BME280;64701;43.536;1.478;2023-04-03T10:44:47;99972.31;;;14.20;61.23
76011;BME280;64701;43.536;1.478;2023-04-03T10:54:56;99968.44;;;14.29;62.77
76011;BME280;64701;43.536;1.478;2023-04-03T10:57:26;99961.66;;;14.20;60.58
76011;BME280;64701;43.536;1.478;2023-04-03T10:59:55;99960.41;;;13.97;57.28
76011;BME280;64701;43.536;1.478;2023-04-03T11:05:03;99956.31;;;13.94;60.12
76011;BME280;64701;43.536;1.478;2023-04-03T11:07:33;99953.88;;;13.99;61.74
76011;BME280;64701;43.536;1.478;2023-04-03T11:10:09;99954.06;;;13.91;60.40
76011;BME280;64701;43.536;1.478;2023-04-03T11:12:57;99945.19;;;13.58;57.94
76011;BME280;64701;43.536;1.478;2023-04-03T11:15:24;99952.09;;;13.45;59.35
76011;BME280;64701;43.536;1.478;2023-04-03T11:17:54;99942.66;;;13.36;60.56
76011;BME280;64701;43.536;1.478;2023-04-03T11:20:27;99941.78;;;13.29;61.02
76011;BME280;64701;43.536;1.478;2023-04-03T11:23:02;99942.22;;;13.26;61.56
76011;BME280;64701;43.536;1.478;2023-04-03T11:25:29;99932.16;;;13.22;60.98
76011;BME280;64701;43.536;1.478;2023-04-03T11:27:59;99938.13;;;13.30;61.70
76011;BME280;64701;43.536;1.478;2023-04-03T11:35:35;99927.66;;;13.16;61.56
76011;BME280;64701;43.536;1.478;2023-04-03T11:38:02;99922.09;;;13.17;61.38
76011;BME280;64701;43.536;1.478;2023-04-03T11:40:31;99921.25;;;13.10;61.76
76011;BME280;64701;43.536;1.478;2023-04-03T11:43:20;99912.66;;;13.08;61.17
76011;BME280;64701;43.536;1.478;2023-04-03T11:45:50;99908.69;;;12.91;62.14
76011;BME280;64701;43.536;1.478;2023-04-03T11:50:56;99914.25;;;13.02;63.40
76011;BME280;64701;43.536;1.478;2023-04-03T11:55:54;99899.06;;;12.90;63.62
76011;BME280;64701;43.536;1.478;2023-04-03T11:58:24;99902.72;;;12.89;63.35
76011;BME280;64701;43.536;1.478;2023-04-03T12:00:51;99893.31;;;12.80;63.04
76011;BME280;64701;43.536;1.478;2023-04-03T12:03:30;99895.72;;;12.75;63.55
76011;BME280;64701;43.536;1.478;2023-04-03T12:05:56;99897.66;;;12.59;64.07
76011;BME280;64701;43.536;1.478;2023-04-03T12:21:19;99867.13;;;13.31;61.17
76011;BME280;64701;43.536;1.478;2023-04-03T12:26:21;99860.25;;;14.15;61.05
76011;BME280;64701;43.536;1.478;2023-04-03T12:28:48;99853.84;;;14.62;58.26
76011;BME280;64701;43.536;1.478;2023-04-03T12:31:13;99847.63;;;14.82;57.98
76011;BME280;64701;43.536;1.478;2023-04-03T12:34:01;99839.88;;;14.74;56.03
76011;BME280;64701;43.536;1.478;2023-04-03T12:41:58;99840.81;;;14.92;55.91
76011;BME280;64701;43.536;1.478;2023-04-03T12:45:03;99836.41;;;15.18;55.65
76011;BME280;64701;43.536;1.478;2023-04-03T12:49:47;99828.16;;;15.50;53.39
76011;BME280;64701;43.536;1.478;2023-04-03T12:54:54;99825.81;;;15.67;51.42
76011;BME280;64701;43.536;1.478;2023-04-03T12:57:23;99825.94;;;15.54;52.34
76011;BME280;64701;43.536;1.478;2023-04-03T12:59:49;99816.38;;;15.71;53.29
76011;BME280;64701;43.536;1.478;2023-04-03T13:02:20;99815.91;;;15.74;54.26
76011;BME280;64701;43.536;1.478;2023-04-03T13:04:46;99815.81;;;15.87;54.63
76011;BME280;64701;43.536;1.478;2023-04-03T13:07:25;99812.94;;;15.89;53.66
76011;BME280;64701;43.536;1.478;2023-04-03T13:10:00;99808.75;;;16.36;51.26
76011;BME280;64701;43.536;1.478;2023-04-03T13:12:26;99797.88;;;16.56;52.22
76011;BME280;64701;43.536;1.478;2023-04-03T13:14:55;99804.81;;;16.57;52.31
76011;BME280;64701;43.536;1.478;2023-04-03T13:17:21;99797.47;;;16.34;50.48
76011;BME280;64701;43.536;1.478;2023-04-03T13:19:47;99799.84;;;16.24;51.51
76011;BME280;64701;43.536;1.478;2023-04-03T13:24:58;99790.22;;;15.98;53.34
76011;BME280;64701;43.536;1.478;2023-04-03T13:27:24;99786.69;;;15.79;53.83
76011;BME280;64701;43.536;1.478;2023-04-03T13:29:51;99786.50;;;15.49;52.01
76011;BME280;64701;43.536;1.478;2023-04-03T13:32:21;99784.50;;;15.45;54.29
76011;BME280;64701;43.536;1.478;2023-04-03T13:34:47;99778.97;;;15.71;53.00
76011;BME280;64701;43.536;1.478;2023-04-03T13:37:24;99773.06;;;15.87;52.92
76011;BME280;64701;43.536;1.478;2023-04-03T13:40:02;99777.13;;;15.97;53.53
76011;BME280;64701;43.536;1.478;2023-04-03T13:42:29;99770.50;;;15.99;51.86
76011;BME280;64701;43.536;1.478;2023-04-03T13:47:39;99755.84;;;16.26;51.38
76011;BME280;64701;43.536;1.478;2023-04-03T13:52:46;99756.75;;;16.20;50.35
76011;BME280;64701;43.536;1.478;2023-04-03T13:55:23;99744.75;;;16.05;50.07
76011;BME280;64701;43.536;1.478;2023-04-03T14:03:16;99749.59;;;15.96;52.31
76011;BME280;64701;43.536;1.478;2023-04-03T14:05:43;99745.16;;;16.08;52.03
76011;BME280;64701;43.536;1.478;2023-04-03T14:08:10;99750.84;;;15.93;50.28
76011;BME280;64701;43.536;1.478;2023-04-03T14:10:35;99741.50;;;15.84;50.53
76011;BME280;64701;43.536;1.478;2023-04-03T14:13:01;99740.66;;;15.84;50.73
76011;BME280;64701;43.536;1.478;2023-04-03T14:15:27;99733.47;;;15.84;52.43
76011;BME280;64701;43.536;1.478;2023-04-03T14:17:53;99730.38;;;16.06;53.15
76011;BME280;64701;43.536;1.478;2023-04-03T14:20:20;99728.38;;;16.19;51.31
76011;BME280;64701;43.536;1.478;2023-04-03T14:22:47;99722.66;;;16.16;50.60
76011;BME280;64701;43.536;1.478;2023-04-03T14:25:13;99723.84;;;16.20;51.51
76011;BME280;64701;43.536;1.478;2023-04-03T14:27:40;99721.41;;;16.18;52.83
76011;BME280;64701;43.536;1.478;2023-04-03T14:30:08;99716.56;;;16.09;52.56
76011;BME280;64701;43.536;1.478;2023-04-03T14:32:34;99709.59;;;15.89;52.23
76011;BME280;64701;43.536;1.478;2023-04-03T14:34:59;99716.09;;;15.50;53.71
76011;BME280;64701;43.536;1.478;2023-04-03T14:37:26;99710.47;;;15.34;54.38
76011;BME280;64701;43.536;1.478;2023-04-03T14:39:53;99709.63;;;15.08;54.68
76011;BME280;64701;43.536;1.478;2023-04-03T14:42:20;99713.28;;;14.89;55.01
76011;BME280;64701;43.536;1.478;2023-04-03T14:44:46;99711.47;;;14.83;56.07
76011;BME280;64701;43.536;1.478;2023-04-03T14:47:12;99709.84;;;14.82;55.66
76011;BME280;64701;43.536;1.478;2023-04-03T14:49:39;99706.13;;;14.83;56.21
76011;BME280;64701;43.536;1.478;2023-04-03T14:52:05;99703.75;;;14.68;55.09
76011;BME280;64701;43.536;1.478;2023-04-03T14:54:30;99694.94;;;14.68;54.80
76011;BME280;64701;43.536;1.478;2023-04-03T14:56:56;99695.78;;;14.62;55.40